Terminal Aerodrome Forecast
Issued by NWS Albany, NY

Home | Current Version | Previous Version | Text Only | Print | Product List | Glossary On
Versions: 1 2 3 4 5 6 7 8 9 10 11 12 13 14 15 16 17 18 19 20 21 22
000
FTUS41 KALY 252119 AAC
TAFALB
TAF AMD
KALB 252119Z 2521/2618 03005KT 4SM -RA BR FEW008 SCT025 OVC050
      WS020/09035KT
      TEMPO 2521/2522 2SM -RA BR BKN025
     FM252200 08010G18KT 6SM -RA BR OVC020
     FM260000 06008KT 6SM BR VCSH OVC015
     FM260300 05006KT 4SM -RA BR SCT008 OVC015
     FM260600 01006KT 2SM -RA BR OVC008
     FM261400 33006KT 5SM -SHRA BR SCT008 OVC012=

USA.gov is the U.S. government's official web portal to all federal, state and local government web resources and services.